page 4927 of 1004116 registered users

eBook PostsUsers

  1. 0sushipizza90 registered @ 2012-12-14 12:16:06, last login @ 2012-12-14 12:16:06
  2. 0jawhood0 registered @ 2012-12-14 12:16:19, last login @ 2012-12-14 12:16:19
  3. 0letterstitch02 registered @ 2012-12-14 12:16:20, last login @ 2012-12-14 12:16:20
  4. 0kidney75celery registered @ 2012-12-14 12:17:53, last login @ 2012-12-14 12:17:53
  5. 0jutedaniel6 registered @ 2012-12-14 12:18:07, last login @ 2012-12-14 12:18:07
  6. 0woodview80 registered @ 2012-12-14 12:18:27, last login @ 2012-12-14 12:18:27
  7. 0george98dibble registered @ 2012-12-14 12:18:31, last login @ 2012-12-14 12:18:31
  8. 0buckettoy01 registered @ 2012-12-14 12:18:45, last login @ 2012-12-14 12:18:45
  9. 0vesselshovel0 registered @ 2012-12-14 12:19:19, last login @ 2012-12-14 12:19:19
  10. 0bat3yellow registered @ 2012-12-14 12:19:21, last login @ 2012-12-14 12:19:21
  11. 0lawcycle9 registered @ 2012-12-14 12:21:05, last login @ 2012-12-14 12:45:11
  12. 0dewbetty96 registered @ 2012-12-14 12:21:36, last login @ 2012-12-14 12:48:03
  13. 0brandytree19 registered @ 2012-12-14 12:22:02, last login @ 2012-12-14 12:22:02
  14. 0zhang0987612345 registered @ 2012-12-14 12:23:17, last login @ 2012-12-14 12:23:17
  15. 0touch3expert registered @ 2012-12-14 12:23:19, last login @ 2012-12-14 12:23:19
  16. 0violet3pig registered @ 2012-12-14 12:23:53, last login @ 2012-12-14 12:23:53
  17. 0nursebaker40 registered @ 2012-12-14 12:26:19, last login @ 2012-12-14 12:26:19
  18. 0sunday54hook registered @ 2012-12-14 12:27:00, last login @ 2012-12-14 12:27:00
  19. 0jail24boot registered @ 2012-12-14 12:27:00, last login @ 2012-12-14 12:27:00
  20. 0letter8poland registered @ 2012-12-14 12:27:18, last login @ 2012-12-14 12:27:18
  21. 0hell79sink registered @ 2012-12-14 12:28:11, last login @ 2012-12-14 12:28:11
  22. 0author85peony registered @ 2012-12-14 12:28:34, last login @ 2012-12-14 12:28:34
  23. 0waiterpants0 registered @ 2012-12-14 12:29:22, last login @ 2012-12-14 12:29:22
  24. 0ship0drama registered @ 2012-12-14 12:30:15, last login @ 2012-12-14 12:30:15
  25. 0tv3stage registered @ 2012-12-14 12:31:36, last login @ 2012-12-14 12:56:02
  26. 0chief1pot registered @ 2012-12-14 12:32:40, last login @ 2012-12-14 12:32:40
  27. 0oak2ring registered @ 2012-12-14 12:32:40, last login @ 2012-12-14 12:32:40
  28. 0forcedryer1 registered @ 2012-12-14 12:32:58, last login @ 2012-12-14 12:54:09
  29. 0coastrule24 registered @ 2012-12-14 12:35:01, last login @ 2012-12-14 12:35:01
  30. 0tulip6tire registered @ 2012-12-14 12:36:48, last login @ 2012-12-14 12:36:48
  31. 0slip0pan registered @ 2012-12-14 12:36:55, last login @ 2012-12-14 12:36:55
  32. 0oilnews02 registered @ 2012-12-14 12:37:40, last login @ 2012-12-14 12:37:40
  33. 0jumbo91print registered @ 2012-12-14 12:37:47, last login @ 2012-12-14 12:37:47
  34. 0Shavannah registered @ 2012-12-14 12:37:50, last login @ 2012-12-14 12:37:50
  35. 0roofwound9 registered @ 2012-12-14 12:37:53, last login @ 2012-12-14 12:37:53
  36. 0domainnail13 registered @ 2012-12-14 12:38:54, last login @ 2012-12-14 12:38:54
  37. 0footnation1 registered @ 2012-12-14 12:39:10, last login @ 2012-12-14 12:39:10
  38. 0qfeaiyuni registered @ 2012-12-14 12:39:15, last login @ 2012-12-14 12:39:15
  39. 0chance73cut registered @ 2012-12-14 12:39:52, last login @ 2012-12-14 12:39:52
  40. 0mintrhythm19 registered @ 2012-12-14 12:40:21, last login @ 2012-12-14 12:40:21
  41. 0MichaelHRose registered @ 2012-12-14 12:43:00, last login @ 2012-12-14 12:49:01
  42. 0pajama0octave registered @ 2012-12-14 12:43:36, last login @ 2012-12-14 12:43:36
  43. 0judo52base registered @ 2012-12-14 12:43:44, last login @ 2012-12-14 12:43:44
  44. 0room66mail registered @ 2012-12-14 12:44:02, last login @ 2012-12-14 12:44:02
  45. 0budget7calf registered @ 2012-12-14 12:44:05, last login @ 2012-12-14 12:44:05
  46. 0color20jail registered @ 2012-12-14 12:44:14, last login @ 2012-12-14 12:44:14
  47. 0sugardish13 registered @ 2012-12-14 12:44:24, last login @ 2012-12-14 12:44:24
  48. 0nic2slope registered @ 2012-12-14 12:45:16, last login @ 2012-12-14 12:45:16
  49. 0quartmiddle12 registered @ 2012-12-14 12:45:53, last login @ 2012-12-14 12:45:53
  50. 0leonbuhl55 registered @ 2012-12-14 12:46:15, last login @ 2012-12-14 12:46:15
  51. 0lizard7hyena registered @ 2012-12-14 12:46:24, last login @ 2012-12-14 12:57:45
  52. 0yardheaven91 registered @ 2012-12-14 12:47:38, last login @ 2012-12-14 12:47:38
  53. 0needlehat65 registered @ 2012-12-14 12:48:11, last login @ 2012-12-14 12:48:11
  54. 0clock5perch registered @ 2012-12-14 12:48:20, last login @ 2012-12-14 12:48:20
  55. 0activeitaly6 registered @ 2012-12-14 12:48:21, last login @ 2012-12-14 12:48:21
  56. 0abzocwzgt registered @ 2012-12-14 12:48:53, last login @ 2012-12-14 12:48:53
  57. 0yellowperch0 registered @ 2012-12-14 12:48:54, last login @ 2012-12-14 12:48:54
  58. 0LouisHFreeman registered @ 2012-12-14 12:49:22, last login @ 2012-12-14 12:49:22
  59. 0rub7tenor registered @ 2012-12-14 12:49:42, last login @ 2012-12-14 12:49:42
  60. 0windfruit6 registered @ 2012-12-14 12:49:59, last login @ 2012-12-14 12:49:59
  61. 0close6bird registered @ 2012-12-14 12:50:56, last login @ 2012-12-14 12:50:56
  62. 0tempofiber45 registered @ 2012-12-14 12:51:53, last login @ 2012-12-14 12:51:53
  63. 0liguojing registered @ 2012-12-14 12:53:37, last login @ 2012-12-14 12:58:21
  64. 0feetgirl38 registered @ 2012-12-14 12:54:08, last login @ 2012-12-14 12:54:08
  65. 0beast2violin registered @ 2012-12-14 12:54:28, last login @ 2012-12-14 12:54:28
  66. 0serverend9 registered @ 2012-12-14 12:55:20, last login @ 2012-12-14 12:55:20
  67. 0park9town registered @ 2012-12-14 12:55:26, last login @ 2012-12-14 12:55:26
  68. 0petdaisy4 registered @ 2012-12-14 12:55:41, last login @ 2012-12-14 12:55:41
  69. 0quince4mark registered @ 2012-12-14 12:56:13, last login @ 2012-12-14 12:56:13
  70. 0sexzebra95 registered @ 2012-12-14 12:56:50, last login @ 2012-12-14 12:56:50
  71. 0wound08jelly registered @ 2012-12-14 12:57:16, last login @ 2012-12-14 12:57:16
  72. 0beetle73layer registered @ 2012-12-14 12:58:14, last login @ 2012-12-14 12:58:14
  73. 0sackdew9 registered @ 2012-12-14 12:58:24, last login @ 2012-12-14 12:58:24
  74. 0club30pilot registered @ 2012-12-14 12:58:29, last login @ 2012-12-14 12:58:29
  75. 0Caspaeronna registered @ 2012-12-14 12:59:37, last login @ 2012-12-14 12:59:37
  76. 0carlentil49 registered @ 2012-12-14 13:00:06, last login @ 2012-12-14 13:00:06
  77. 0story7kitten registered @ 2012-12-14 13:00:37, last login @ 2012-12-14 13:00:37
  78. 0drugbrick10 registered @ 2012-12-14 13:00:43, last login @ 2012-12-14 13:00:43
  79. 0chanwoonam91 registered @ 2012-12-14 13:01:49, last login @ 2012-12-14 13:01:49
  80. 0base69rabbi registered @ 2012-12-14 13:03:00, last login @ 2012-12-14 13:03:00
  81. 0middlecart82 registered @ 2012-12-14 13:03:34, last login @ 2012-12-14 13:03:34
  82. 0risedime4 registered @ 2012-12-14 13:04:04, last login @ 2012-12-14 13:04:04
  83. 0scarf2jeff registered @ 2012-12-14 13:05:05, last login @ 2012-12-14 13:05:05
  84. 0guilty5father registered @ 2012-12-14 13:05:45, last login @ 2012-12-14 13:05:45
  85. 0cinema8silver registered @ 2012-12-14 13:07:27, last login @ 2012-12-14 13:07:27
  86. 0coachwhale92 registered @ 2012-12-14 13:08:09, last login @ 2012-12-14 13:08:09
  87. 0washerbugle79 registered @ 2012-12-14 13:08:31, last login @ 2012-12-14 13:08:31
  88. 0lotionswing45 registered @ 2012-12-14 13:09:24, last login @ 2012-12-14 13:09:24
  89. 0edwardsister11 registered @ 2012-12-14 13:10:12, last login @ 2012-12-14 13:10:12
  90. 0bordercream2 registered @ 2012-12-14 13:10:16, last login @ 2012-12-14 13:10:16
  91. 0edger3copper registered @ 2012-12-14 13:10:24, last login @ 2012-12-14 13:10:24
  92. 0warm2april registered @ 2012-12-14 13:10:27, last login @ 2012-12-14 13:59:55
  93. 0leaf40hate registered @ 2012-12-14 13:11:39, last login @ 2012-12-14 13:11:39
  94. 0egypt66number registered @ 2012-12-14 13:11:53, last login @ 2012-12-14 13:36:13
  95. 0expert44dock registered @ 2012-12-14 13:11:55, last login @ 2012-12-14 13:33:10
  96. 0agendagirdle4 registered @ 2012-12-14 13:12:05, last login @ 2012-12-14 13:12:05
  97. 0giant2lumber registered @ 2012-12-14 13:12:34, last login @ 2012-12-14 13:12:34
  98. 0profitpiano56 registered @ 2012-12-14 13:13:52, last login @ 2012-12-14 13:13:52
  99. 0buffer3burst registered @ 2012-12-14 13:14:01, last login @ 2012-12-14 13:14:01
  100. 0sea98gate registered @ 2012-12-14 13:16:21, last login @ 2012-12-14 13:16:21
  101. 0shelf50trail registered @ 2012-12-14 13:16:25, last login @ 2012-12-14 13:16:25

More...

[4937] [4936] [4935] [4934] [4933] [4932] [4931] [4930] [4929] [4928] [4927] [4926] [4925] [4924] [4923] [4922] [4921] [4920] [4919] [4918] ...[1]
Back to Top